CFG4MV EDDF-LEPA
Flight info
| Callsign | CFG4MV |
|---|---|
| Flight time | 1h 51m |
| Altitude | 35000 |
| Route | ANEKI3F/25C ANEKI Y163 HERBI Y164 MOPAN DCT LUTIX DCT BENOT DCT NEMOS DCT GEVEA DCT INCUS DCT BALSI DCT RETNO DCT TUPOX DCT MTG DCT DIVKO DCT VATIR DCT PIVUS N852 VERSO L129 LUNIK |
| Aircraft | A321/M-SDE2E3FGHIJ1RWXYZ/LB1 |
Departure
| Time | 2026-05-04 10:34 |
|---|---|
| Airport | Frankfurt Main Airport (EDDF) |
Arrival
| Time | 2026-05-04 12:26 |
|---|---|
| Airport | Palma de Mallorca Airport (LEPA) |
| Time | Latitude | Longitude | Altitude | Speed | Heading |
|---|---|---|---|---|---|
| 2026-05-04 10:05 | 50.04883 | 8.57441 | 356 ft | 0 kts | 217° |
| 2026-05-04 10:26 | 50.04886 | 8.57444 | 356 ft | 3 kts | 218° |
| 2026-05-04 10:26 | 50.04907 | 8.57469 | 364 ft | 4 kts | 216° |
| 2026-05-04 10:26 | 50.04929 | 8.57491 | 362 ft | 4 kts | 193° |
| 2026-05-04 10:27 | 50.04946 | 8.57489 | 360 ft | 2 kts | 115° |
| 2026-05-04 10:27 | 50.04938 | 8.57515 | 360 ft | 4 kts | 114° |
| 2026-05-04 10:27 | 50.04927 | 8.57553 | 361 ft | 4 kts | 114° |
| 2026-05-04 10:27 | 50.04916 | 8.57592 | 360 ft | 4 kts | 114° |
| 2026-05-04 10:28 | 50.04907 | 8.57624 | 359 ft | 1 kts | 114° |
| 2026-05-04 10:29 | 50.04897 | 8.57658 | 362 ft | 8 kts | 114° |
| 2026-05-04 10:30 | 50.04862 | 8.57782 | 362 ft | 14 kts | 114° |
| 2026-05-04 10:30 | 50.04851 | 8.57822 | 361 ft | 3 kts | 114° |
| 2026-05-04 10:30 | 50.04843 | 8.57849 | 361 ft | 2 kts | 114° |
| 2026-05-04 10:30 | 50.04822 | 8.57892 | 361 ft | 9 kts | 146° |
| 2026-05-04 10:31 | 50.04741 | 8.57941 | 361 ft | 16 kts | 159° |
| 2026-05-04 10:31 | 50.04621 | 8.58011 | 361 ft | 18 kts | 160° |
| 2026-05-04 10:32 | 50.04459 | 8.58102 | 366 ft | 7 kts | 161° |
| 2026-05-04 10:33 | 50.04404 | 8.58132 | 369 ft | 10 kts | 161° |
| 2026-05-04 10:33 | 50.04373 | 8.58114 | 374 ft | 4 kts | 246° |
| 2026-05-04 10:33 | 50.04366 | 8.58083 | 366 ft | 14 kts | 250° |
| 2026-05-04 10:33 | 50.04240 | 8.57560 | 363 ft | 85 kts | 249° |
| 2026-05-04 10:34 | 50.03967 | 8.56418 | 357 ft | 138 kts | 250° |
| 2026-05-04 10:34 | 50.03584 | 8.54804 | 366 ft | 176 kts | 251° |
| 2026-05-04 10:34 | 50.03184 | 8.53040 | 967 ft | 171 kts | 250° |
| 2026-05-04 10:34 | 50.02730 | 8.51340 | 1543 ft | 171 kts | 237° |
| 2026-05-04 10:35 | 50.01773 | 8.50146 | 1816 ft | 189 kts | 205° |
| 2026-05-04 10:35 | 50.00468 | 8.49428 | 1973 ft | 209 kts | 199° |
| 2026-05-04 10:35 | 49.99027 | 8.49009 | 2368 ft | 216 kts | 174° |
| 2026-05-04 10:35 | 49.97560 | 8.49723 | 2737 ft | 230 kts | 163° |
| 2026-05-04 10:36 | 49.95917 | 8.50301 | 2993 ft | 252 kts | 173° |
| 2026-05-04 10:36 | 49.94183 | 8.50641 | 3640 ft | 258 kts | 175° |
| 2026-05-04 10:36 | 49.92386 | 8.50941 | 4449 ft | 261 kts | 175° |
| 2026-05-04 10:36 | 49.90567 | 8.51266 | 5229 ft | 264 kts | 175° |
| 2026-05-04 10:37 | 49.88732 | 8.51634 | 5999 ft | 267 kts | 174° |
| 2026-05-04 10:37 | 49.86881 | 8.52041 | 6724 ft | 271 kts | 173° |
| 2026-05-04 10:37 | 49.85011 | 8.52477 | 7438 ft | 273 kts | 173° |
| 2026-05-04 10:37 | 49.83125 | 8.52928 | 8174 ft | 275 kts | 173° |
| 2026-05-04 10:39 | 49.70817 | 8.53193 | 10749 ft | 344 kts | 186° |
| 2026-05-04 10:39 | 49.68405 | 8.52858 | 11235 ft | 351 kts | 186° |
| 2026-05-04 10:39 | 49.65959 | 8.52524 | 11864 ft | 355 kts | 186° |
| 2026-05-04 10:40 | 49.63488 | 8.52194 | 12506 ft | 358 kts | 186° |
| 2026-05-04 10:40 | 49.61000 | 8.51868 | 13140 ft | 361 kts | 186° |
| 2026-05-04 10:40 | 49.58485 | 8.51544 | 13770 ft | 364 kts | 186° |
| 2026-05-04 10:40 | 49.55953 | 8.51216 | 14313 ft | 367 kts | 186° |
| 2026-05-04 10:41 | 49.53396 | 8.50882 | 14860 ft | 369 kts | 186° |
| 2026-05-04 10:41 | 49.50826 | 8.50543 | 15403 ft | 372 kts | 186° |
| 2026-05-04 10:41 | 49.48238 | 8.50201 | 15951 ft | 374 kts | 186° |
| 2026-05-04 10:41 | 49.45633 | 8.49856 | 16484 ft | 377 kts | 186° |
| 2026-05-04 10:42 | 49.43015 | 8.49508 | 17010 ft | 379 kts | 186° |
| 2026-05-04 10:42 | 49.40379 | 8.49159 | 17561 ft | 380 kts | 186° |
| 2026-05-04 10:42 | 49.37735 | 8.48818 | 18093 ft | 382 kts | 186° |
| 2026-05-04 10:42 | 49.35072 | 8.48475 | 18557 ft | 385 kts | 186° |
| 2026-05-04 10:43 | 49.32396 | 8.48128 | 18988 ft | 387 kts | 186° |
| 2026-05-04 10:44 | 49.13315 | 8.45528 | 21959 ft | 401 kts | 187° |
| 2026-05-04 10:45 | 49.10523 | 8.45143 | 22371 ft | 404 kts | 187° |
| 2026-05-04 10:45 | 49.07710 | 8.44761 | 22781 ft | 406 kts | 187° |
| 2026-05-04 10:45 | 49.04918 | 8.44069 | 23164 ft | 407 kts | 193° |
| 2026-05-04 10:45 | 49.02144 | 8.43149 | 23564 ft | 409 kts | 194° |
| 2026-05-04 10:46 | 48.99360 | 8.42200 | 23901 ft | 411 kts | 194° |
| 2026-05-04 10:46 | 48.96562 | 8.41232 | 24207 ft | 413 kts | 194° |
| 2026-05-04 10:46 | 48.93750 | 8.40258 | 24537 ft | 415 kts | 194° |
| 2026-05-04 10:46 | 48.90920 | 8.39281 | 24878 ft | 417 kts | 194° |
| 2026-05-04 10:47 | 48.88087 | 8.38311 | 25212 ft | 418 kts | 194° |
| 2026-05-04 10:47 | 48.85280 | 8.37361 | 25545 ft | 420 kts | 194° |
| 2026-05-04 10:47 | 48.82427 | 8.36403 | 25881 ft | 421 kts | 194° |
| 2026-05-04 10:47 | 48.79559 | 8.35441 | 26213 ft | 422 kts | 194° |
| 2026-05-04 10:49 | 48.59288 | 8.28043 | 28276 ft | 434 kts | 194° |
| 2026-05-04 10:49 | 48.56344 | 8.26970 | 28593 ft | 434 kts | 194° |
| 2026-05-04 10:50 | 48.53403 | 8.25906 | 28998 ft | 433 kts | 194° |
| 2026-05-04 10:51 | 48.33126 | 8.18537 | 31507 ft | 425 kts | 196° |
| 2026-05-04 10:52 | 48.30290 | 8.17499 | 31821 ft | 424 kts | 196° |
| 2026-05-04 10:52 | 48.27427 | 8.16459 | 32170 ft | 423 kts | 196° |
| 2026-05-04 10:52 | 48.24609 | 8.15258 | 32510 ft | 419 kts | 202° |
| 2026-05-04 10:54 | 48.06557 | 8.02101 | 34730 ft | 409 kts | 208° |
| 2026-05-04 10:54 | 48.04002 | 8.00229 | 34938 ft | 410 kts | 208° |
| 2026-05-04 10:56 | 47.85130 | 7.81855 | 35021 ft | 404 kts | 215° |
| 2026-05-04 10:57 | 47.80448 | 7.77219 | 35025 ft | 404 kts | 215° |
| 2026-05-04 10:57 | 47.75771 | 7.72595 | 35021 ft | 404 kts | 215° |
| 2026-05-04 10:58 | 47.71098 | 7.67979 | 35012 ft | 403 kts | 215° |
| 2026-05-04 10:58 | 47.66414 | 7.63370 | 35015 ft | 403 kts | 215° |
| 2026-05-04 10:59 | 47.61734 | 7.58785 | 35016 ft | 403 kts | 215° |
| 2026-05-04 10:59 | 47.57055 | 7.54190 | 35033 ft | 403 kts | 214° |
| 2026-05-04 11:00 | 47.52375 | 7.49607 | 35005 ft | 403 kts | 214° |
| 2026-05-04 11:02 | 47.33670 | 7.31411 | 35004 ft | 404 kts | 214° |
| 2026-05-04 11:05 | 46.98104 | 6.97226 | 35038 ft | 408 kts | 214° |
| 2026-05-04 11:06 | 46.93346 | 6.92710 | 35038 ft | 407 kts | 214° |
| 2026-05-04 11:06 | 46.88832 | 6.87835 | 35037 ft | 406 kts | 219° |
| 2026-05-04 11:10 | 46.58881 | 6.52327 | 35039 ft | 407 kts | 219° |
| 2026-05-04 11:12 | 46.41276 | 6.31678 | 35063 ft | 406 kts | 219° |
| 2026-05-04 11:12 | 46.36903 | 6.26581 | 35084 ft | 406 kts | 219° |
| 2026-05-04 11:13 | 46.32503 | 6.21465 | 35086 ft | 406 kts | 219° |
| 2026-05-04 11:13 | 46.28081 | 6.16383 | 35088 ft | 406 kts | 215° |
| 2026-05-04 11:14 | 46.23013 | 6.12853 | 35088 ft | 408 kts | 197° |
| 2026-05-04 11:16 | 46.00478 | 6.07691 | 35069 ft | 410 kts | 191° |
| 2026-05-04 11:16 | 45.94819 | 6.06446 | 35071 ft | 411 kts | 191° |
| 2026-05-04 11:17 | 45.89162 | 6.05197 | 35073 ft | 411 kts | 191° |
| 2026-05-04 11:19 | 45.66537 | 6.00196 | 35076 ft | 411 kts | 192° |
| 2026-05-04 11:19 | 45.60914 | 5.98962 | 35072 ft | 411 kts | 192° |
| 2026-05-04 11:20 | 45.55246 | 5.97715 | 35075 ft | 412 kts | 192° |
| 2026-05-04 11:20 | 45.49580 | 5.96477 | 35073 ft | 412 kts | 192° |
| 2026-05-04 11:22 | 45.27269 | 5.89654 | 35049 ft | 410 kts | 195° |
| 2026-05-04 11:23 | 45.21687 | 5.87935 | 35039 ft | 410 kts | 195° |
| 2026-05-04 11:25 | 45.02141 | 5.81904 | 35034 ft | 411 kts | 196° |
| 2026-05-04 11:25 | 44.96550 | 5.80183 | 35044 ft | 411 kts | 195° |
| 2026-05-04 11:27 | 44.71413 | 5.72495 | 35050 ft | 410 kts | 196° |
| 2026-05-04 11:28 | 44.65823 | 5.70785 | 35087 ft | 411 kts | 196° |
| 2026-05-04 11:28 | 44.60239 | 5.69076 | 35086 ft | 410 kts | 196° |
| 2026-05-04 11:29 | 44.54661 | 5.67382 | 35088 ft | 410 kts | 196° |
| 2026-05-04 11:29 | 44.49084 | 5.65700 | 35086 ft | 410 kts | 196° |
| 2026-05-04 11:33 | 44.11785 | 5.48016 | 35058 ft | 403 kts | 205° |
| 2026-05-04 11:33 | 44.06597 | 5.45193 | 35050 ft | 402 kts | 205° |
| 2026-05-04 11:34 | 44.01387 | 5.42366 | 35052 ft | 402 kts | 205° |
| 2026-05-04 11:34 | 43.96186 | 5.39543 | 35049 ft | 401 kts | 205° |
| 2026-05-04 11:35 | 43.90980 | 5.36725 | 35046 ft | 401 kts | 205° |
| 2026-05-04 11:35 | 43.85776 | 5.33926 | 35035 ft | 401 kts | 205° |
| 2026-05-04 11:36 | 43.80619 | 5.31140 | 35049 ft | 400 kts | 205° |
| 2026-05-04 11:36 | 43.75440 | 5.28348 | 35049 ft | 399 kts | 205° |
| 2026-05-04 11:37 | 43.70263 | 5.25572 | 35030 ft | 398 kts | 205° |
| 2026-05-04 11:37 | 43.65094 | 5.22798 | 35044 ft | 398 kts | 205° |
| 2026-05-04 11:38 | 43.59939 | 5.20039 | 35046 ft | 397 kts | 205° |
| 2026-05-04 11:38 | 43.54787 | 5.17283 | 35029 ft | 397 kts | 205° |
| 2026-05-04 11:39 | 43.49637 | 5.14529 | 35025 ft | 397 kts | 205° |
| 2026-05-04 11:40 | 43.34763 | 5.05036 | 35032 ft | 391 kts | 217° |
| 2026-05-04 11:41 | 43.32527 | 5.02916 | 35028 ft | 391 kts | 217° |
| 2026-05-04 11:41 | 43.28048 | 4.98693 | 35012 ft | 390 kts | 217° |
| 2026-05-04 11:42 | 43.23563 | 4.94489 | 35031 ft | 390 kts | 217° |
| 2026-05-04 11:42 | 43.19071 | 4.90280 | 35028 ft | 390 kts | 217° |
| 2026-05-04 11:43 | 43.14612 | 4.86108 | 35018 ft | 390 kts | 217° |
| 2026-05-04 11:43 | 43.10129 | 4.81909 | 35001 ft | 390 kts | 217° |
| 2026-05-04 11:44 | 43.05644 | 4.77738 | 35008 ft | 390 kts | 214° |
| 2026-05-04 11:44 | 43.00893 | 4.74098 | 35009 ft | 392 kts | 213° |
| 2026-05-04 11:45 | 42.96123 | 4.70485 | 34997 ft | 391 kts | 213° |
| 2026-05-04 11:45 | 42.91361 | 4.66887 | 34986 ft | 391 kts | 213° |
| 2026-05-04 11:46 | 42.86622 | 4.63304 | 34987 ft | 392 kts | 213° |
| 2026-05-04 11:46 | 42.81847 | 4.59696 | 34994 ft | 392 kts | 213° |
| 2026-05-04 11:47 | 42.77079 | 4.56109 | 35004 ft | 392 kts | 212° |
| 2026-05-04 11:47 | 42.72301 | 4.52517 | 34996 ft | 392 kts | 212° |
| 2026-05-04 11:48 | 42.67509 | 4.48920 | 34994 ft | 393 kts | 212° |
| 2026-05-04 11:48 | 42.62719 | 4.45328 | 34996 ft | 394 kts | 212° |
| 2026-05-04 11:49 | 42.57923 | 4.41735 | 34984 ft | 393 kts | 212° |
| 2026-05-04 11:49 | 42.53130 | 4.38159 | 34983 ft | 393 kts | 212° |
| 2026-05-04 11:50 | 42.48342 | 4.34592 | 34979 ft | 393 kts | 212° |
| 2026-05-04 11:50 | 42.43557 | 4.31033 | 34990 ft | 392 kts | 212° |
| 2026-05-04 11:51 | 42.38807 | 4.27511 | 34997 ft | 392 kts | 212° |
| 2026-05-04 11:51 | 42.34029 | 4.23968 | 34992 ft | 391 kts | 212° |
| 2026-05-04 11:52 | 42.29255 | 4.20437 | 34988 ft | 391 kts | 213° |
| 2026-05-04 11:52 | 42.24494 | 4.16918 | 35007 ft | 389 kts | 212° |
| 2026-05-04 11:53 | 42.19744 | 4.13415 | 35003 ft | 388 kts | 212° |
| 2026-05-04 11:53 | 42.15005 | 4.09923 | 35000 ft | 388 kts | 212° |
| 2026-05-04 11:55 | 41.96108 | 3.96081 | 34979 ft | 386 kts | 212° |
| 2026-05-04 11:56 | 41.91187 | 3.93148 | 34960 ft | 394 kts | 200° |
| 2026-05-04 11:56 | 41.86672 | 3.92051 | 34984 ft | 397 kts | 196° |
| 2026-05-04 11:57 | 41.81227 | 3.90802 | 34993 ft | 396 kts | 197° |
| 2026-05-04 11:57 | 41.75796 | 3.89537 | 34999 ft | 396 kts | 197° |
| 2026-05-04 11:58 | 41.70369 | 3.88280 | 34980 ft | 395 kts | 197° |
| 2026-05-04 11:58 | 41.64941 | 3.87032 | 34968 ft | 397 kts | 197° |
| 2026-05-04 11:59 | 41.59475 | 3.85773 | 34956 ft | 400 kts | 196° |
| 2026-05-04 11:59 | 41.53960 | 3.84513 | 34958 ft | 403 kts | 196° |
| 2026-05-04 12:00 | 41.48417 | 3.83240 | 34941 ft | 405 kts | 196° |
| 2026-05-04 12:00 | 41.42904 | 3.81984 | 34950 ft | 405 kts | 196° |
| 2026-05-04 12:01 | 41.37345 | 3.80720 | 34969 ft | 405 kts | 196° |
| 2026-05-04 12:02 | 41.17940 | 3.76286 | 34986 ft | 404 kts | 196° |
| 2026-05-04 12:03 | 41.12594 | 3.74305 | 34987 ft | 396 kts | 206° |
| 2026-05-04 12:03 | 41.07454 | 3.71641 | 34989 ft | 396 kts | 206° |
| 2026-05-04 12:04 | 41.02316 | 3.69001 | 34979 ft | 396 kts | 206° |
| 2026-05-04 12:04 | 40.97190 | 3.66360 | 34434 ft | 396 kts | 206° |
| 2026-05-04 12:05 | 40.94613 | 3.65034 | 33558 ft | 399 kts | 206° |
| 2026-05-04 12:05 | 40.92016 | 3.63705 | 32609 ft | 402 kts | 205° |
| 2026-05-04 12:05 | 40.89392 | 3.62357 | 31649 ft | 406 kts | 205° |
| 2026-05-04 12:05 | 40.86736 | 3.60992 | 30654 ft | 412 kts | 205° |
| 2026-05-04 12:06 | 40.84084 | 3.59633 | 29564 ft | 417 kts | 205° |
| 2026-05-04 12:06 | 40.81360 | 3.58238 | 28399 ft | 422 kts | 205° |
| 2026-05-04 12:06 | 40.78617 | 3.56836 | 27452 ft | 423 kts | 205° |
| 2026-05-04 12:06 | 40.75862 | 3.55437 | 26638 ft | 423 kts | 205° |
| 2026-05-04 12:07 | 40.73133 | 3.54057 | 26063 ft | 417 kts | 205° |
| 2026-05-04 12:07 | 40.70439 | 3.52694 | 25481 ft | 412 kts | 204° |
| 2026-05-04 12:07 | 40.67781 | 3.51346 | 24905 ft | 407 kts | 204° |
| 2026-05-04 12:07 | 40.65145 | 3.50002 | 24348 ft | 403 kts | 204° |
| 2026-05-04 12:08 | 40.62549 | 3.48672 | 23804 ft | 399 kts | 204° |
| 2026-05-04 12:08 | 40.59969 | 3.47353 | 23194 ft | 395 kts | 204° |
| 2026-05-04 12:08 | 40.57451 | 3.46074 | 22673 ft | 389 kts | 204° |
| 2026-05-04 12:08 | 40.54909 | 3.44789 | 22159 ft | 383 kts | 204° |
| 2026-05-04 12:09 | 40.52441 | 3.43545 | 21675 ft | 377 kts | 204° |
| 2026-05-04 12:09 | 40.50040 | 3.42336 | 21208 ft | 371 kts | 204° |
| 2026-05-04 12:09 | 40.47648 | 3.41129 | 20765 ft | 365 kts | 204° |
| 2026-05-04 12:09 | 40.45269 | 3.40012 | 20326 ft | 361 kts | 199° |
| 2026-05-04 12:10 | 40.42793 | 3.39431 | 19882 ft | 363 kts | 188° |
| 2026-05-04 12:10 | 40.40259 | 3.39451 | 19401 ft | 364 kts | 182° |
| 2026-05-04 12:10 | 40.37742 | 3.39604 | 18935 ft | 361 kts | 182° |
| 2026-05-04 12:10 | 40.35234 | 3.39755 | 18478 ft | 359 kts | 182° |
| 2026-05-04 12:11 | 40.32743 | 3.39898 | 17965 ft | 358 kts | 181° |
| 2026-05-04 12:11 | 40.30260 | 3.40038 | 17509 ft | 355 kts | 181° |
| 2026-05-04 12:11 | 40.27832 | 3.40175 | 17061 ft | 353 kts | 181° |
| 2026-05-04 12:11 | 40.25387 | 3.40311 | 16590 ft | 350 kts | 181° |
| 2026-05-04 12:12 | 40.22959 | 3.40446 | 16126 ft | 348 kts | 181° |
| 2026-05-04 12:12 | 40.20542 | 3.40582 | 15646 ft | 346 kts | 181° |
| 2026-05-04 12:12 | 40.18145 | 3.40719 | 15168 ft | 344 kts | 181° |
| 2026-05-04 12:12 | 40.15771 | 3.40858 | 14924 ft | 335 kts | 181° |
| 2026-05-04 12:13 | 40.13480 | 3.40993 | 14801 ft | 323 kts | 181° |
| 2026-05-04 12:14 | 39.99613 | 3.37994 | 13316 ft | 289 kts | 219° |
| 2026-05-04 12:15 | 39.98026 | 3.36355 | 12873 ft | 289 kts | 219° |
| 2026-05-04 12:15 | 39.96451 | 3.34749 | 12514 ft | 286 kts | 219° |
| 2026-05-04 12:15 | 39.94888 | 3.33160 | 12118 ft | 285 kts | 219° |
| 2026-05-04 12:15 | 39.93328 | 3.31575 | 11732 ft | 283 kts | 218° |
| 2026-05-04 12:16 | 39.91775 | 3.29996 | 11356 ft | 282 kts | 218° |
| 2026-05-04 12:16 | 39.90234 | 3.28427 | 10985 ft | 281 kts | 218° |
| 2026-05-04 12:16 | 39.88701 | 3.26864 | 10608 ft | 279 kts | 218° |
| 2026-05-04 12:16 | 39.87174 | 3.25311 | 10246 ft | 278 kts | 218° |
| 2026-05-04 12:17 | 39.85657 | 3.23766 | 9879 ft | 276 kts | 218° |
| 2026-05-04 12:17 | 39.84146 | 3.22227 | 9471 ft | 275 kts | 218° |
| 2026-05-04 12:17 | 39.82644 | 3.20697 | 9079 ft | 273 kts | 218° |
| 2026-05-04 12:17 | 39.81150 | 3.19180 | 8692 ft | 272 kts | 218° |
| 2026-05-04 12:18 | 39.79664 | 3.17674 | 8308 ft | 270 kts | 218° |
| 2026-05-04 12:18 | 39.78208 | 3.16198 | 7929 ft | 268 kts | 218° |
| 2026-05-04 12:18 | 39.76738 | 3.14711 | 7552 ft | 267 kts | 218° |
| 2026-05-04 12:18 | 39.75278 | 3.13236 | 7185 ft | 264 kts | 219° |
| 2026-05-04 12:19 | 39.73836 | 3.11776 | 6831 ft | 262 kts | 219° |
| 2026-05-04 12:19 | 39.72401 | 3.10322 | 6435 ft | 261 kts | 219° |
| 2026-05-04 12:19 | 39.71027 | 3.08804 | 6038 ft | 259 kts | 227° |
| 2026-05-04 12:19 | 39.69986 | 3.06911 | 5614 ft | 258 kts | 238° |
| 2026-05-04 12:20 | 39.69054 | 3.04904 | 5078 ft | 259 kts | 238° |
| 2026-05-04 12:20 | 39.68146 | 3.02973 | 4700 ft | 242 kts | 238° |
| 2026-05-04 12:20 | 39.67303 | 3.01176 | 4378 ft | 225 kts | 238° |
| 2026-05-04 12:20 | 39.66507 | 2.99477 | 4084 ft | 217 kts | 238° |
| 2026-05-04 12:21 | 39.65723 | 2.97807 | 3804 ft | 217 kts | 239° |
| 2026-05-04 12:21 | 39.64969 | 2.96198 | 3527 ft | 202 kts | 238° |
| 2026-05-04 12:21 | 39.64261 | 2.94690 | 3269 ft | 189 kts | 238° |
| 2026-05-04 12:21 | 39.63608 | 2.93299 | 3029 ft | 173 kts | 238° |
| 2026-05-04 12:22 | 39.63006 | 2.92018 | 2803 ft | 159 kts | 238° |
| 2026-05-04 12:22 | 39.62455 | 2.90847 | 2623 ft | 147 kts | 238° |
| 2026-05-04 12:22 | 39.61935 | 2.89740 | 2422 ft | 141 kts | 237° |
| 2026-05-04 12:22 | 39.61423 | 2.88653 | 2229 ft | 141 kts | 237° |
| 2026-05-04 12:23 | 39.60905 | 2.87551 | 2035 ft | 143 kts | 237° |
| 2026-05-04 12:23 | 39.60389 | 2.86455 | 1850 ft | 141 kts | 235° |
| 2026-05-04 12:23 | 39.59887 | 2.85387 | 1673 ft | 138 kts | 237° |
| 2026-05-04 12:23 | 39.59379 | 2.84310 | 1475 ft | 139 kts | 238° |
| 2026-05-04 12:24 | 39.58881 | 2.83253 | 1304 ft | 138 kts | 237° |
| 2026-05-04 12:24 | 39.58374 | 2.82177 | 1112 ft | 138 kts | 237° |
| 2026-05-04 12:24 | 39.57879 | 2.81125 | 947 ft | 136 kts | 237° |
| 2026-05-04 12:24 | 39.57377 | 2.80061 | 749 ft | 141 kts | 238° |
| 2026-05-04 12:25 | 39.56867 | 2.78981 | 568 ft | 138 kts | 237° |
| 2026-05-04 12:25 | 39.56359 | 2.77899 | 391 ft | 140 kts | 238° |
| 2026-05-04 12:25 | 39.55864 | 2.76830 | 227 ft | 139 kts | 236° |
| 2026-05-04 12:25 | 39.55366 | 2.75788 | 42 ft | 134 kts | 237° |
| 2026-05-04 12:26 | 39.54950 | 2.74915 | 38 ft | 85 kts | 239° |
| 2026-05-04 12:26 | 39.54806 | 2.74448 | 38 ft | 36 kts | 261° |
| 2026-05-04 12:26 | 39.54798 | 2.74187 | 38 ft | 23 kts | 263° |
| 2026-05-04 12:26 | 39.54740 | 2.74023 | 37 ft | 19 kts | 237° |
| 2026-05-04 12:27 | 39.54771 | 2.73940 | 38 ft | 10 kts | 351° |
| 2026-05-04 12:27 | 39.54827 | 2.73994 | 38 ft | 13 kts | 23° |
| 2026-05-04 12:27 | 39.54905 | 2.73956 | 38 ft | 12 kts | 328° |
| 2026-05-04 12:27 | 39.54924 | 2.73874 | 38 ft | 10 kts | 251° |
| 2026-05-04 12:28 | 39.54905 | 2.73812 | 38 ft | 0 kts | 249° |
| 2026-05-04 12:28 | 39.54904 | 2.73809 | 38 ft | 0 kts | 249° |